sensor_id;sensor_type;location;lat;lon;timestamp;temperature;humidity
79059;SHT31;68456;51.986;5.692;2023-03-12T13:21:38;13.2;67.2
79059;SHT31;68456;51.986;5.692;2023-03-12T14:33:32;14.0;62.2
79059;SHT31;68456;51.986;5.692;2023-03-12T14:36:10;13.9;62.3
79059;SHT31;68456;51.986;5.692;2023-03-12T14:38:44;13.9;62.0
79059;SHT31;68456;51.986;5.692;2023-03-12T14:41:20;13.9;61.6
79059;SHT31;68456;51.986;5.692;2023-03-12T14:43:53;13.8;61.4
79059;SHT31;68456;51.986;5.692;2023-03-12T14:46:23;13.8;61.5
79059;SHT31;68456;51.986;5.692;2023-03-12T14:48:53;13.8;61.4
79059;SHT31;68456;51.986;5.692;2023-03-12T14:51:25;13.7;60.7
79059;SHT31;68456;51.986;5.692;2023-03-12T14:54:02;13.7;60.3
79059;SHT31;68456;51.986;5.692;2023-03-12T14:56:33;13.6;61.2
79059;SHT31;68456;51.986;5.692;2023-03-12T14:59:20;13.6;60.5
79059;SHT31;68456;51.986;5.692;2023-03-12T15:01:51;13.6;61.1
79059;SHT31;68456;51.986;5.692;2023-03-12T15:04:26;13.6;61.5
79059;SHT31;68456;51.986;5.692;2023-03-12T15:06:58;13.6;62.3
79059;SHT31;68456;51.986;5.692;2023-03-12T15:09:34;13.5;62.7
79059;SHT31;68456;51.986;5.692;2023-03-12T15:12:14;13.5;62.0
79059;SHT31;68456;51.986;5.692;2023-03-12T15:14:41;13.5;61.5
79059;SHT31;68456;51.986;5.692;2023-03-12T15:17:15;13.5;61.8
79059;SHT31;68456;51.986;5.692;2023-03-12T15:19:46;13.5;62.8
79059;SHT31;68456;51.986;5.692;2023-03-12T15:22:20;13.5;61.5
79059;SHT31;68456;51.986;5.692;2023-03-12T15:24:51;13.5;61.3
79059;SHT31;68456;51.986;5.692;2023-03-12T15:27:31;13.5;60.8
79059;SHT31;68456;51.986;5.692;2023-03-12T15:30:19;13.5;60.9
79059;SHT31;68456;51.986;5.692;2023-03-12T15:32:35;13.5;60.0
79059;SHT31;68456;51.986;5.692;2023-03-12T15:35:11;13.5;60.4
79059;SHT31;68456;51.986;5.692;2023-03-12T15:37:50;13.5;60.5
79059;SHT31;68456;51.986;5.692;2023-03-12T15:40:22;13.5;60.8
79059;SHT31;68456;51.986;5.692;2023-03-12T15:42:53;13.5;60.7
79059;SHT31;68456;51.986;5.692;2023-03-12T15:45:34;13.5;60.0
79059;SHT31;68456;51.986;5.692;2023-03-12T15:48:17;13.5;60.3
79059;SHT31;68456;51.986;5.692;2023-03-12T15:50:49;13.5;60.0
79059;SHT31;68456;51.986;5.692;2023-03-12T15:53:27;13.5;60.3
79059;SHT31;68456;51.986;5.692;2023-03-12T15:56:01;13.5;60.5
79059;SHT31;68456;51.986;5.692;2023-03-12T15:58:34;13.5;60.3
79059;SHT31;68456;51.986;5.692;2023-03-12T16:01:10;13.5;59.7
79059;SHT31;68456;51.986;5.692;2023-03-12T16:03:41;13.5;60.1
79059;SHT31;68456;51.986;5.692;2023-03-12T16:06:13;13.5;60.1
79059;SHT31;68456;51.986;5.692;2023-03-12T16:08:46;13.5;60.5
79059;SHT31;68456;51.986;5.692;2023-03-12T16:11:19;13.5;60.4
79059;SHT31;68456;51.986;5.692;2023-03-12T16:14:00;13.5;60.5
79059;SHT31;68456;51.986;5.692;2023-03-12T16:16:27;13.4;60.6
79059;SHT31;68456;51.986;5.692;2023-03-12T16:18:57;13.4;60.7
79059;SHT31;68456;51.986;5.692;2023-03-12T16:21:26;13.4;61.1
79059;SHT31;68456;51.986;5.692;2023-03-12T16:23:56;13.4;60.9
79059;SHT31;68456;51.986;5.692;2023-03-12T16:26:26;13.4;61.2
79059;SHT31;68456;51.986;5.692;2023-03-12T16:28:55;13.4;61.0
79059;SHT31;68456;51.986;5.692;2023-03-12T16:31:26;13.4;61.4
79059;SHT31;68456;51.986;5.692;2023-03-12T16:33:55;13.4;61.3
79059;SHT31;68456;51.986;5.692;2023-03-12T16:36:27;13.4;61.3
79059;SHT31;68456;51.986;5.692;2023-03-12T16:38:58;13.4;61.7
79059;SHT31;68456;51.986;5.692;2023-03-12T16:41:31;13.4;61.5
79059;SHT31;68456;51.986;5.692;2023-03-12T16:44:04;13.3;61.4
79059;SHT31;68456;51.986;5.692;2023-03-12T16:46:36;13.3;61.5
79059;SHT31;68456;51.986;5.692;2023-03-12T16:49:15;13.3;61.4
79059;SHT31;68456;51.986;5.692;2023-03-12T16:51:47;13.3;61.4
79059;SHT31;68456;51.986;5.692;2023-03-12T16:54:18;13.3;61.3
79059;SHT31;68456;51.986;5.692;2023-03-12T16:56:48;13.3;61.2
79059;SHT31;68456;51.986;5.692;2023-03-12T16:59:23;13.3;61.1
79059;SHT31;68456;51.986;5.692;2023-03-12T17:01:55;13.2;61.2
79059;SHT31;68456;51.986;5.692;2023-03-12T17:04:24;13.2;61.2
79059;SHT31;68456;51.986;5.692;2023-03-12T17:06:54;13.2;61.2
79059;SHT31;68456;51.986;5.692;2023-03-12T17:09:23;13.2;61.3
79059;SHT31;68456;51.986;5.692;2023-03-12T17:11:53;13.2;61.2
79059;SHT31;68456;51.986;5.692;2023-03-12T17:14:23;13.1;61.0
79059;SHT31;68456;51.986;5.692;2023-03-12T17:16:54;13.1;61.5
79059;SHT31;68456;51.986;5.692;2023-03-12T17:19:23;13.1;61.4
79059;SHT31;68456;51.986;5.692;2023-03-12T17:21:53;13.1;61.5
79059;SHT31;68456;51.986;5.692;2023-03-12T17:24:22;13.1;61.5
79059;SHT31;68456;51.986;5.692;2023-03-12T17:26:54;13.1;61.3
79059;SHT31;68456;51.986;5.692;2023-03-12T17:29:24;13.1;61.2
79059;SHT31;68456;51.986;5.692;2023-03-12T17:31:54;13.1;61.4
79059;SHT31;68456;51.986;5.692;2023-03-12T17:34:24;13.1;61.6
79059;SHT31;68456;51.986;5.692;2023-03-12T17:36:55;13.0;61.5
79059;SHT31;68456;51.986;5.692;2023-03-12T17:39:25;13.0;61.5
79059;SHT31;68456;51.986;5.692;2023-03-12T17:41:56;13.0;61.8
79059;SHT31;68456;51.986;5.692;2023-03-12T17:44:26;13.0;61.7
79059;SHT31;68456;51.986;5.692;2023-03-12T17:47:01;13.0;61.9
79059;SHT31;68456;51.986;5.692;2023-03-12T17:49:32;13.0;62.1
79059;SHT31;68456;51.986;5.692;2023-03-12T17:52:02;13.0;62.0
79059;SHT31;68456;51.986;5.692;2023-03-12T17:54:32;13.0;62.4
79059;SHT31;68456;51.986;5.692;2023-03-12T17:57:02;13.0;62.5
79059;SHT31;68456;51.986;5.692;2023-03-12T17:59:32;13.0;62.5
79059;SHT31;68456;51.986;5.692;2023-03-12T18:02:02;13.0;62.7
79059;SHT31;68456;51.986;5.692;2023-03-12T18:04:34;13.0;62.9
79059;SHT31;68456;51.986;5.692;2023-03-12T18:07:03;13.0;63.0
79059;SHT31;68456;51.986;5.692;2023-03-12T18:09:35;13.0;63.2
79059;SHT31;68456;51.986;5.692;2023-03-12T18:12:05;13.0;63.4
79059;SHT31;68456;51.986;5.692;2023-03-12T18:14:36;13.0;63.5
79059;SHT31;68456;51.986;5.692;2023-03-12T18:17:05;13.0;63.6
79059;SHT31;68456;51.986;5.692;2023-03-12T18:19:35;13.0;63.7
79059;SHT31;68456;51.986;5.692;2023-03-12T18:22:05;13.0;63.8
79059;SHT31;68456;51.986;5.692;2023-03-12T18:24:38;13.0;64.0
79059;SHT31;68456;51.986;5.692;2023-03-12T18:27:08;13.0;64.0
79059;SHT31;68456;51.986;5.692;2023-03-12T18:29:37;13.0;64.1
79059;SHT31;68456;51.986;5.692;2023-03-12T18:32:10;13.0;64.2
79059;SHT31;68456;51.986;5.692;2023-03-12T18:34:41;13.0;64.2
79059;SHT31;68456;51.986;5.692;2023-03-12T18:37:11;13.0;64.2
79059;SHT31;68456;51.986;5.692;2023-03-12T18:39:40;13.0;64.3
79059;SHT31;68456;51.986;5.692;2023-03-12T18:42:10;13.0;64.3
79059;SHT31;68456;51.986;5.692;2023-03-12T18:44:40;13.0;64.2
79059;SHT31;68456;51.986;5.692;2023-03-12T18:47:10;13.0;64.3
79059;SHT31;68456;51.986;5.692;2023-03-12T18:49:39;13.0;64.3
79059;SHT31;68456;51.986;5.692;2023-03-12T18:52:09;13.0;64.4
79059;SHT31;68456;51.986;5.692;2023-03-12T18:54:39;13.0;64.6
79059;SHT31;68456;51.986;5.692;2023-03-12T18:57:08;13.0;64.8
79059;SHT31;68456;51.986;5.692;2023-03-12T18:59:39;13.0;64.8
79059;SHT31;68456;51.986;5.692;2023-03-12T19:02:12;13.0;65.0
79059;SHT31;68456;51.986;5.692;2023-03-12T19:04:42;13.0;65.1
79059;SHT31;68456;51.986;5.692;2023-03-12T19:07:11;13.0;64.8
79059;SHT31;68456;51.986;5.692;2023-03-12T19:09:41;13.0;65.1
79059;SHT31;68456;51.986;5.692;2023-03-12T19:12:11;13.0;65.2
79059;SHT31;68456;51.986;5.692;2023-03-12T19:14:41;13.0;65.2
79059;SHT31;68456;51.986;5.692;2023-03-12T19:17:10;13.0;65.1
79059;SHT31;68456;51.986;5.692;2023-03-12T19:19:40;13.0;65.2
79059;SHT31;68456;51.986;5.692;2023-03-12T19:22:10;13.0;65.1
79059;SHT31;68456;51.986;5.692;2023-03-12T19:24:40;13.0;65.1
79059;SHT31;68456;51.986;5.692;2023-03-12T19:27:10;13.0;64.9
79059;SHT31;68456;51.986;5.692;2023-03-12T19:29:40;13.0;65.0
79059;SHT31;68456;51.986;5.692;2023-03-12T19:32:09;13.0;65.0
79059;SHT31;68456;51.986;5.692;2023-03-12T19:34:39;13.0;65.3
79059;SHT31;68456;51.986;5.692;2023-03-12T19:37:09;13.0;65.3
79059;SHT31;68456;51.986;5.692;2023-03-12T19:39:39;13.0;65.6
79059;SHT31;68456;51.986;5.692;2023-03-12T19:42:08;13.0;65.4
79059;SHT31;68456;51.986;5.692;2023-03-12T19:44:38;13.0;65.3
79059;SHT31;68456;51.986;5.692;2023-03-12T19:47:08;13.0;65.2
79059;SHT31;68456;51.986;5.692;2023-03-12T19:49:38;13.0;65.3
79059;SHT31;68456;51.986;5.692;2023-03-12T19:52:08;13.0;65.2
79059;SHT31;68456;51.986;5.692;2023-03-12T19:54:38;13.0;65.1
79059;SHT31;68456;51.986;5.692;2023-03-12T19:57:10;13.0;65.1
79059;SHT31;68456;51.986;5.692;2023-03-12T19:59:40;13.0;64.9
79059;SHT31;68456;51.986;5.692;2023-03-12T20:02:12;13.0;64.9
79059;SHT31;68456;51.986;5.692;2023-03-12T20:04:42;13.0;64.9
79059;SHT31;68456;51.986;5.692;2023-03-12T20:07:11;13.0;64.7
79059;SHT31;68456;51.986;5.692;2023-03-12T20:09:41;13.0;64.9
79059;SHT31;68456;51.986;5.692;2023-03-12T20:12:11;13.0;64.7
79059;SHT31;68456;51.986;5.692;2023-03-12T20:14:41;13.0;64.7
79059;SHT31;68456;51.986;5.692;2023-03-12T20:17:10;13.0;64.5
79059;SHT31;68456;51.986;5.692;2023-03-12T20:19:40;13.0;64.5
79059;SHT31;68456;51.986;5.692;2023-03-12T20:22:10;13.0;64.2
79059;SHT31;68456;51.986;5.692;2023-03-12T20:24:39;13.0;64.3
79059;SHT31;68456;51.986;5.692;2023-03-12T20:27:09;13.0;64.0
79059;SHT31;68456;51.986;5.692;2023-03-12T20:29:39;13.0;64.1
79059;SHT31;68456;51.986;5.692;2023-03-12T20:32:09;13.0;64.1
79059;SHT31;68456;51.986;5.692;2023-03-12T20:34:39;13.0;64.0
79059;SHT31;68456;51.986;5.692;2023-03-12T20:37:10;13.0;64.0
79059;SHT31;68456;51.986;5.692;2023-03-12T20:39:40;13.0;63.9
79059;SHT31;68456;51.986;5.692;2023-03-12T20:42:09;13.0;63.8
79059;SHT31;68456;51.986;5.692;2023-03-12T20:44:39;13.0;63.8
79059;SHT31;68456;51.986;5.692;2023-03-12T20:47:08;13.0;63.7
79059;SHT31;68456;51.986;5.692;2023-03-12T20:49:38;13.0;63.7
79059;SHT31;68456;51.986;5.692;2023-03-12T20:52:08;13.0;63.7
79059;SHT31;68456;51.986;5.692;2023-03-12T20:54:37;13.0;63.6
79059;SHT31;68456;51.986;5.692;2023-03-12T20:57:07;13.0;63.5
79059;SHT31;68456;51.986;5.692;2023-03-12T20:59:36;13.0;63.5
79059;SHT31;68456;51.986;5.692;2023-03-12T21:02:06;13.0;63.4
79059;SHT31;68456;51.986;5.692;2023-03-12T21:04:36;13.0;63.5
79059;SHT31;68456;51.986;5.692;2023-03-12T21:07:06;13.0;63.4
79059;SHT31;68456;51.986;5.692;2023-03-12T21:09:35;13.1;63.3
79059;SHT31;68456;51.986;5.692;2023-03-12T21:12:05;13.1;63.4
79059;SHT31;68456;51.986;5.692;2023-03-12T21:14:35;13.1;63.3
79059;SHT31;68456;51.986;5.692;2023-03-12T21:17:06;13.1;63.0
79059;SHT31;68456;51.986;5.692;2023-03-12T21:19:40;13.1;63.0
79059;SHT31;68456;51.986;5.692;2023-03-12T21:22:10;13.1;62.9
79059;SHT31;68456;51.986;5.692;2023-03-12T21:24:42;13.1;63.0
79059;SHT31;68456;51.986;5.692;2023-03-12T21:27:12;13.1;62.9
79059;SHT31;68456;51.986;5.692;2023-03-12T21:29:41;13.1;62.9
79059;SHT31;68456;51.986;5.692;2023-03-12T21:32:11;13.1;62.7
79059;SHT31;68456;51.986;5.692;2023-03-12T21:34:40;13.1;62.7
79059;SHT31;68456;51.986;5.692;2023-03-12T21:37:10;13.1;62.8
79059;SHT31;68456;51.986;5.692;2023-03-12T21:39:40;13.0;62.7
79059;SHT31;68456;51.986;5.692;2023-03-12T21:42:10;13.0;62.7
79059;SHT31;68456;51.986;5.692;2023-03-12T21:44:41;13.0;62.8
79059;SHT31;68456;51.986;5.692;2023-03-12T21:47:13;13.0;62.8
79059;SHT31;68456;51.986;5.692;2023-03-12T21:49:43;13.0;62.9
79059;SHT31;68456;51.986;5.692;2023-03-12T21:52:13;13.0;62.8
79059;SHT31;68456;51.986;5.692;2023-03-12T21:54:44;13.0;62.9
79059;SHT31;68456;51.986;5.692;2023-03-12T21:57:13;13.0;62.7
79059;SHT31;68456;51.986;5.692;2023-03-12T21:59:43;13.0;62.8
79059;SHT31;68456;51.986;5.692;2023-03-12T22:02:13;13.0;62.6
79059;SHT31;68456;51.986;5.692;2023-03-12T22:04:43;13.0;62.7
79059;SHT31;68456;51.986;5.692;2023-03-12T22:07:13;13.0;62.7
79059;SHT31;68456;51.986;5.692;2023-03-12T22:09:42;13.0;62.7
79059;SHT31;68456;51.986;5.692;2023-03-12T22:12:12;13.0;62.7
79059;SHT31;68456;51.986;5.692;2023-03-12T22:14:41;12.9;62.4
79059;SHT31;68456;51.986;5.692;2023-03-12T22:17:11;12.9;62.6
79059;SHT31;68456;51.986;5.692;2023-03-12T22:19:40;12.9;62.5
79059;SHT31;68456;51.986;5.692;2023-03-12T22:22:10;12.9;62.5
79059;SHT31;68456;51.986;5.692;2023-03-12T22:24:40;12.9;62.3
79059;SHT31;68456;51.986;5.692;2023-03-12T22:27:10;12.9;62.5
79059;SHT31;68456;51.986;5.692;2023-03-12T22:29:39;12.9;62.5
79059;SHT31;68456;51.986;5.692;2023-03-12T22:32:10;12.9;62.6
79059;SHT31;68456;51.986;5.692;2023-03-12T22:34:39;12.9;62.6
79059;SHT31;68456;51.986;5.692;2023-03-12T22:37:09;12.9;62.4
79059;SHT31;68456;51.986;5.692;2023-03-12T22:39:39;12.9;62.6
79059;SHT31;68456;51.986;5.692;2023-03-12T22:42:09;12.9;62.5
79059;SHT31;68456;51.986;5.692;2023-03-12T22:44:40;12.9;62.6
79059;SHT31;68456;51.986;5.692;2023-03-12T22:47:09;12.9;62.5
79059;SHT31;68456;51.986;5.692;2023-03-12T22:49:39;12.9;62.4
79059;SHT31;68456;51.986;5.692;2023-03-12T22:52:10;12.8;62.7
79059;SHT31;68456;51.986;5.692;2023-03-12T22:54:40;12.8;62.8
79059;SHT31;68456;51.986;5.692;2023-03-12T22:57:10;12.8;63.0
79059;SHT31;68456;51.986;5.692;2023-03-12T22:59:39;12.8;63.5
79059;SHT31;68456;51.986;5.692;2023-03-12T23:02:09;12.8;63.8
79059;SHT31;68456;51.986;5.692;2023-03-12T23:04:40;12.8;64.1
79059;SHT31;68456;51.986;5.692;2023-03-12T23:07:12;12.8;64.3
79059;SHT31;68456;51.986;5.692;2023-03-12T23:09:43;12.8;64.6
79059;SHT31;68456;51.986;5.692;2023-03-12T23:12:13;12.8;64.8
79059;SHT31;68456;51.986;5.692;2023-03-12T23:14:42;12.8;64.9
79059;SHT31;68456;51.986;5.692;2023-03-12T23:17:12;12.8;65.2
79059;SHT31;68456;51.986;5.692;2023-03-12T23:19:41;12.8;65.0
79059;SHT31;68456;51.986;5.692;2023-03-12T23:22:11;12.8;65.2
79059;SHT31;68456;51.986;5.692;2023-03-12T23:24:43;12.8;65.2
79059;SHT31;68456;51.986;5.692;2023-03-12T23:27:13;12.8;65.1
79059;SHT31;68456;51.986;5.692;2023-03-12T23:29:42;12.8;65.1
79059;SHT31;68456;51.986;5.692;2023-03-12T23:32:12;12.8;65.3
79059;SHT31;68456;51.986;5.692;2023-03-12T23:34:41;12.8;65.5
79059;SHT31;68456;51.986;5.692;2023-03-12T23:37:11;12.8;65.8
79059;SHT31;68456;51.986;5.692;2023-03-12T23:39:41;12.8;65.5
79059;SHT31;68456;51.986;5.692;2023-03-12T23:42:10;12.8;65.6
79059;SHT31;68456;51.986;5.692;2023-03-12T23:44:40;12.8;65.8
79059;SHT31;68456;51.986;5.692;2023-03-12T23:47:10;12.8;66.0
79059;SHT31;68456;51.986;5.692;2023-03-12T23:49:39;12.8;66.1
79059;SHT31;68456;51.986;5.692;2023-03-12T23:52:09;12.8;66.1
79059;SHT31;68456;51.986;5.692;2023-03-12T23:54:38;12.8;66.1
79059;SHT31;68456;51.986;5.692;2023-03-12T23:57:08;12.8;66.1
79059;SHT31;68456;51.986;5.692;2023-03-12T23:59:37;12.8;66.3
